McCleary, Washington
Current Conditions -  °F | °C
As of 10:53 PM on Friday 31 Oct 2014 (Local Time) from KSHN Reporting Station
Moderate Fog Moderate Fog  
Wind Chill: 38°   Ceiling: 200
Heat Index: 38°   Visibility: 0.5mi
Dew Point: 37°   Wind: 0mph
Humidity: 97%   Direction: NA
Pressure: 29.85"   Gusts: NA
Location:  47.05°N, 123.27°W
Report Text: KSHN 010553Z AUTO 00000KT 1/2SM FG VV002 03/03 A2985 RMK AO2 SLP113 T00330028 10117 20033 50002 TSNO
Loading
Personal Weather Stations






























Interactive Weather Map
Tropical Storm Tracking
New forecast layout! Learn more

10-Day Weather Forecast

Advertisements
Track Severe Weather on mobile